Time;durP1;ratioP1;P1;durP2;ratioP2;P2;SDS_P1;SDS_P2;PMS_P1;PMS_P2;Temp;Humidity;BMP_temperature;BMP_pressure;BME280_temperature;BME280_humidity;BME280_pressure;Samples;Min_cycle;Max_cycle;Signal;HPM_P1;HPM_P2
2022/01/03 00:01:15;;;;;;;;;;;;;;;12.89;47.93;99489.94;4475028;32;33173;-73
2022/01/03 00:03:43;;;;;;;;;;;;;;;13.02;47.83;99478.97;4469156;32;33702;-73
2022/01/03 00:06:11;;;;;;;;;;;;;;;12.98;47.96;99477.56;4477100;32;34272;-73
2022/01/03 00:08:40;;;;;;;;;;;;;;;12.70;48.75;99471.91;4471781;32;35138;-72
2022/01/03 00:11:08;;;;;;;;;;;;;;;12.81;48.54;99471.00;4475449;32;32771;-74
2022/01/03 00:13:36;;;;;;;;;;;;;;;13.03;47.99;99481.53;4473228;32;34326;-72
2022/01/03 00:16:03;;;;;;;;;;;;;;;12.98;47.56;99488.28;4467326;32;35232;-71
2022/01/03 00:18:31;;;;;;;;;;;;;;;12.67;48.29;99480.25;4468020;32;34418;-72
2022/01/03 00:20:59;;;;;;;;;;;;;;;12.86;47.97;99484.00;4466446;32;34291;-72
2022/01/03 00:23:27;;;;;;;;;;;;;;;12.71;48.43;99467.41;4467441;32;33187;-77
2022/01/03 00:25:59;;;;;;;;;;;;;;;12.81;48.32;99471.00;4467251;32;35217;-72
2022/01/03 00:28:55;;;;;;;;;;;;;;;12.76;48.31;99468.69;4477043;32;32825;-71
2022/01/03 00:31:23;;;;;;;;;;;;;;;12.77;47.90;99467.69;4463898;32;34356;-71
2022/01/03 00:33:54;;;;;;;;;;;;;;;12.88;47.51;99466.78;4481399;32;31879;-71
2022/01/03 00:36:21;;;;;;;;;;;;;;;12.40;49.03;99469.25;4440483;32;936421;-69
2022/01/03 00:38:49;;;;;;;;;;;;;;;12.31;49.70;99461.00;4472284;32;34209;-71
2022/01/03 00:41:16;;;;;;;;;;;;;;;12.43;49.06;99451.03;4470640;32;34474;-70
2022/01/03 00:43:43;;;;;;;;;;;;;;;12.29;49.47;99454.91;4469227;32;32327;-69
2022/01/03 00:46:11;;;;;;;;;;;;;;;12.24;50.31;99456.31;4473937;32;33170;-70
2022/01/03 00:48:38;;;;;;;;;;;;;;;12.09;50.63;99462.00;4468114;32;33975;-71
2022/01/03 00:51:05;;;;;;;;;;;;;;;12.18;50.56;99459.50;4468111;32;35107;-70
2022/01/03 00:53:33;;;;;;;;;;;;;;;12.42;49.52;99453.84;4473249;32;33493;-70
2022/01/03 00:56:02;;;;;;;;;;;;;;;12.44;49.39;99460.78;4478986;32;34043;-69
2022/01/03 00:58:30;;;;;;;;;;;;;;;12.35;50.20;99466.94;4473633;32;31909;-70
2022/01/03 01:00:58;;;;;;;;;;;;;;;12.42;50.15;99469.94;4469106;32;35393;-69
2022/01/03 01:03:27;;;;;;;;;;;;;;;12.48;50.68;99469.41;4469088;32;34483;-69
2022/01/03 01:05:55;;;;;;;;;;;;;;;12.60;50.64;99465.66;4476903;32;34360;-70
2022/01/03 01:08:23;;;;;;;;;;;;;;;12.75;50.83;99463.47;4475653;32;34358;-69
2022/01/03 01:10:51;;;;;;;;;;;;;;;12.92;50.35;99464.66;4474521;32;33394;-70
2022/01/03 01:13:19;;;;;;;;;;;;;;;12.90;50.33;99454.03;4481008;32;34109;-70
2022/01/03 01:15:47;;;;;;;;;;;;;;;13.07;49.90;99455.25;4477996;32;34141;-71
2022/01/03 01:18:15;;;;;;;;;;;;;;;13.03;49.77;99461.84;4469871;32;34509;-71
2022/01/03 01:20:45;;;;;;;;;;;;;;;13.00;49.30;99460.31;4469471;32;36270;-72
2022/01/03 01:23:14;;;;;;;;;;;;;;;13.14;48.37;99461.75;4469264;32;33425;-71
2022/01/03 01:28:10;;;;;;;;;;;;;;;13.08;48.41;99456.94;4476721;32;35570;-71
2022/01/03 01:30:38;;;;;;;;;;;;;;;12.97;48.58;99448.97;4480644;32;34005;-69
2022/01/03 01:33:06;;;;;;;;;;;;;;;12.86;49.21;99446.41;4469850;32;33864;-70
2022/01/03 01:35:42;;;;;;;;;;;;;;;13.05;48.72;99444.63;4475870;32;35312;-71
2022/01/03 01:38:10;;;;;;;;;;;;;;;12.88;49.20;99437.22;4467282;32;34161;-72
2022/01/03 01:40:42;;;;;;;;;;;;;;;12.83;49.46;99436.78;4468864;32;34058;-71
2022/01/03 01:43:10;;;;;;;;;;;;;;;12.68;49.26;99435.44;4467195;31;34459;-70
2022/01/03 01:45:38;;;;;;;;;;;;;;;12.98;48.29;99423.81;4470764;32;35160;-68
2022/01/03 01:48:05;;;;;;;;;;;;;;;13.20;47.48;99428.97;4470541;32;35548;-68
2022/01/03 01:50:33;;;;;;;;;;;;;;;13.18;47.00;99417.50;4471092;32;34214;-69
2022/01/03 01:53:01;;;;;;;;;;;;;;;12.92;47.45;99419.84;4471543;32;33279;-69
2022/01/03 01:55:28;;;;;;;;;;;;;;;12.41;49.17;99420.78;4468448;32;34191;-69
2022/01/03 01:57:58;;;;;;;;;;;;;;;11.56;51.40;99408.38;4464452;32;33574;-69
2022/01/03 02:00:26;;;;;;;;;;;;;;;11.43;51.79;99421.13;4467404;32;34466;-69
2022/01/03 02:03:00;;;;;;;;;;;;;;;10.68;53.94;99422.72;4465283;32;33184;-69
2022/01/03 02:05:30;;;;;;;;;;;;;;;10.90;53.84;99426.38;4468204;32;33654;-69
2022/01/03 02:08:17;;;;;;;;;;;;;;;11.13;53.13;99419.97;4474775;32;33217;-70
2022/01/03 02:10:50;;;;;;;;;;;;;;;11.56;51.72;99431.66;4471436;32;34132;-70
2022/01/03 02:13:21;;;;;;;;;;;;;;;11.56;51.87;99424.47;4477401;32;33278;-69
2022/01/03 02:15:57;;;;;;;;;;;;;;;11.58;51.67;99427.00;4467876;31;34052;-69
2022/01/03 02:18:26;;;;;;;;;;;;;;;11.66;51.85;99421.87;4473182;32;35088;-69
2022/01/03 02:20:54;;;;;;;;;;;;;;;11.71;51.28;99416.09;4472117;32;34566;-69
2022/01/03 02:23:21;;;;;;;;;;;;;;;11.57;51.93;99422.63;4473738;32;32832;-70
2022/01/03 02:25:49;;;;;;;;;;;;;;;11.92;50.48;99416.16;4471416;32;34239;-72
2022/01/03 02:28:20;;;;;;;;;;;;;;;12.14;49.78;99402.59;4473948;32;33969;-69
2022/01/03 02:30:48;;;;;;;;;;;;;;;12.20;49.42;99395.81;4471757;31;33320;-69
2022/01/03 02:33:16;;;;;;;;;;;;;;;11.89;50.01;99410.06;4468676;32;33481;-75
2022/01/03 02:35:44;;;;;;;;;;;;;;;11.94;51.66;99408.81;4466163;32;33298;-72
2022/01/03 02:38:13;;;;;;;;;;;;;;;12.27;50.16;99403.22;4464204;32;34306;-74
2022/01/03 02:40:41;;;;;;;;;;;;;;;12.59;49.18;99400.38;4474361;32;34087;-73
2022/01/03 02:43:09;;;;;;;;;;;;;;;12.59;49.06;99388.81;4473666;32;33271;-73
2022/01/03 02:45:36;;;;;;;;;;;;;;;12.81;49.12;99388.59;4466341;32;33976;-74
2022/01/03 02:48:07;;;;;;;;;;;;;;;12.72;49.42;99392.09;4468664;32;34172;-72
2022/01/03 02:50:35;;;;;;;;;;;;;;;12.99;49.85;99401.34;4467062;32;33403;-72
2022/01/03 02:53:03;;;;;;;;;;;;;;;13.10;49.24;99392.28;4465271;32;33690;-72
2022/01/03 02:55:30;;;;;;;;;;;;;;;13.55;47.17;99410.59;4474357;32;34096;-72
2022/01/03 02:58:05;;;;;;;;;;;;;;;12.97;48.72;99377.31;4468335;32;34091;-72
2022/01/03 03:00:35;;;;;;;;;;;;;;;13.03;48.09;99390.19;4470915;32;32536;-73
2022/01/03 03:03:03;;;;;;;;;;;;;;;13.25;47.76;99397.16;4472340;32;34231;-72
2022/01/03 03:05:31;;;;;;;;;;;;;;;13.10;47.89;99414.66;4471058;32;33971;-72
2022/01/03 03:07:58;;;;;;;;;;;;;;;13.24;47.41;99416.97;4469686;32;35314;-72
2022/01/03 03:10:26;;;;;;;;;;;;;;;13.31;47.24;99419.09;4465025;32;33771;-72
2022/01/03 03:12:54;;;;;;;;;;;;;;;13.34;47.13;99403.53;4465423;32;34255;-73
2022/01/03 03:15:22;;;;;;;;;;;;;;;13.48;47.01;99396.88;4470307;32;34137;-72
2022/01/03 03:17:49;;;;;;;;;;;;;;;13.65;46.14;99408.78;4468267;32;33973;-71
2022/01/03 03:20:18;;;;;;;;;;;;;;;13.61;46.15;99408.22;4473066;32;33395;-72
2022/01/03 03:22:49;;;;;;;;;;;;;;;13.76;45.60;99392.47;4469114;32;32172;-72
2022/01/03 03:25:18;;;;;;;;;;;;;;;13.62;45.75;99391.09;4471346;32;35195;-73
2022/01/03 03:27:47;;;;;;;;;;;;;;;13.82;45.47;99385.69;4468766;32;34607;-73
2022/01/03 03:30:22;;;;;;;;;;;;;;;13.64;46.10;99389.13;4469923;32;34373;-74
2022/01/03 03:32:51;;;;;;;;;;;;;;;13.19;47.39;99395.03;4473166;32;32446;-75
2022/01/03 03:35:19;;;;;;;;;;;;;;;12.91;47.85;99399.34;4473164;31;35100;-74
2022/01/03 03:37:46;;;;;;;;;;;;;;;13.09;48.30;99388.75;4467902;32;33010;-73
2022/01/03 03:40:14;;;;;;;;;;;;;;;13.07;47.82;99395.28;4471066;32;33801;-73
2022/01/03 03:42:41;;;;;;;;;;;;;;;12.89;47.97;99395.09;4474605;31;33472;-74
2022/01/03 03:45:11;;;;;;;;;;;;;;;12.71;49.12;99400.25;4473238;32;34327;-73
2022/01/03 03:47:39;;;;;;;;;;;;;;;12.72;49.35;99394.78;4471992;32;33387;-73
2022/01/03 03:50:07;;;;;;;;;;;;;;;13.08;48.08;99395.12;4472553;32;34534;-75
2022/01/03 03:52:34;;;;;;;;;;;;;;;12.85;48.79;99402.59;4468774;32;33380;-73
2022/01/03 03:55:02;;;;;;;;;;;;;;;12.86;49.23;99398.91;4472713;32;33017;-74
2022/01/03 03:57:30;;;;;;;;;;;;;;;12.80;49.14;99411.03;4468720;32;33927;-75
2022/01/03 03:59:57;;;;;;;;;;;;;;;13.00;48.51;99394.97;4474134;32;34422;-74
2022/01/03 04:02:25;;;;;;;;;;;;;;;13.18;47.75;99390.63;4472169;32;33257;-77
2022/01/03 04:04:53;;;;;;;;;;;;;;;13.20;47.69;99423.59;4474949;32;34217;-74
2022/01/03 04:07:20;;;;;;;;;;;;;;;12.88;48.94;99390.72;4471482;32;34227;-76
2022/01/03 04:09:48;;;;;;;;;;;;;;;12.86;48.74;99392.69;4472364;32;34211;-74
2022/01/03 04:12:15;;;;;;;;;;;;;;;12.94;48.69;99406.28;4473662;32;35183;-74
2022/01/03 04:14:43;;;;;;;;;;;;;;;13.15;48.45;99398.09;4465590;32;34220;-74
2022/01/03 04:17:11;;;;;;;;;;;;;;;12.99;48.25;99391.44;4472292;32;34124;-74
2022/01/03 04:19:39;;;;;;;;;;;;;;;11.93;51.62;99405.28;4469554;32;34193;-74
2022/01/03 04:22:06;;;;;;;;;;;;;;;12.88;48.87;99412.22;4468065;32;33230;-74
2022/01/03 04:24:34;;;;;;;;;;;;;;;13.22;48.07;99410.00;4471169;32;34898;-74
2022/01/03 04:27:01;;;;;;;;;;;;;;;13.05;48.77;99411.53;4475426;32;35273;-74
2022/01/03 04:29:29;;;;;;;;;;;;;;;13.12;48.08;99401.91;4467124;31;35083;-74
2022/01/03 04:31:57;;;;;;;;;;;;;;;13.43;47.51;99401.84;4471568;32;34527;-74
2022/01/03 04:34:25;;;;;;;;;;;;;;;13.58;47.72;99424.63;4474075;32;32535;-74
2022/01/03 04:36:52;;;;;;;;;;;;;;;13.39;47.33;99420.09;4476738;31;33536;-74
2022/01/03 04:39:19;;;;;;;;;;;;;;;13.21;47.35;99421.75;4471534;32;35353;-74
2022/01/03 04:41:47;;;;;;;;;;;;;;;13.22;47.48;99410.84;4474143;31;34555;-73
2022/01/03 04:44:14;;;;;;;;;;;;;;;13.37;47.17;99416.69;4468349;32;35267;-74
2022/01/03 04:46:42;;;;;;;;;;;;;;;13.45;47.12;99406.09;4470806;32;35376;-74
2022/01/03 04:49:09;;;;;;;;;;;;;;;13.59;46.81;99409.34;4475298;32;35075;-74
2022/01/03 04:51:39;;;;;;;;;;;;;;;13.56;46.90;99409.62;4470705;31;33706;-74
2022/01/03 04:54:07;;;;;;;;;;;;;;;13.50;46.89;99382.31;4468442;32;34322;-74
2022/01/03 04:56:34;;;;;;;;;;;;;;;13.68;46.76;99403.97;4469410;32;35289;-74
2022/01/03 04:59:02;;;;;;;;;;;;;;;13.79;46.55;99396.72;4473402;32;34428;-74
2022/01/03 05:01:29;;;;;;;;;;;;;;;13.14;47.69;99407.16;4468355;32;34300;-74
2022/01/03 05:03:57;;;;;;;;;;;;;;;12.98;48.05;99395.12;4473784;31;34139;-73
2022/01/03 05:06:24;;;;;;;;;;;;;;;13.68;46.27;99401.28;4475245;32;34259;-74
2022/01/03 05:08:52;;;;;;;;;;;;;;;13.81;46.24;99402.81;4471295;31;34509;-74
2022/01/03 05:11:20;;;;;;;;;;;;;;;13.66;46.17;99381.72;4468356;32;34644;-73
2022/01/03 05:13:47;;;;;;;;;;;;;;;13.78;46.18;99398.56;4470053;32;34144;-73
2022/01/03 05:16:16;;;;;;;;;;;;;;;13.85;45.80;99394.31;4474041;32;35925;-76
2022/01/03 05:18:44;;;;;;;;;;;;;;;13.60;46.52;99389.53;4470132;32;35846;-76
2022/01/03 05:21:12;;;;;;;;;;;;;;;13.62;46.32;99387.56;4469744;32;33781;-76
2022/01/03 05:23:41;;;;;;;;;;;;;;;13.50;46.72;99393.06;4470798;32;33753;-77
2022/01/03 05:26:09;;;;;;;;;;;;;;;13.08;47.28;99381.69;4460209;32;35324;-77
2022/01/03 05:28:37;;;;;;;;;;;;;;;13.55;46.48;99373.84;4464851;32;33677;-74
2022/01/03 05:31:04;;;;;;;;;;;;;;;13.57;46.38;99371.81;4464430;32;33601;-74
2022/01/03 05:33:32;;;;;;;;;;;;;;;13.58;46.39;99365.47;4463930;32;34564;-74
2022/01/03 05:36:00;;;;;;;;;;;;;;;13.50;46.53;99371.56;4463034;32;35364;-72
2022/01/03 05:38:27;;;;;;;;;;;;;;;13.82;45.75;99367.69;4474467;32;33944;-71
2022/01/03 05:40:56;;;;;;;;;;;;;;;14.01;45.40;99361.44;4469813;32;33430;-74
2022/01/03 05:43:24;;;;;;;;;;;;;;;13.94;46.08;99365.69;4472927;32;34008;-74
2022/01/03 05:45:51;;;;;;;;;;;;;;;14.18;44.95;99371.41;4466612;32;34524;-74
2022/01/03 05:48:19;;;;;;;;;;;;;;;14.12;45.06;99379.22;4471478;32;35413;-74
2022/01/03 05:50:46;;;;;;;;;;;;;;;13.99;45.50;99377.69;4466894;32;33396;-74
2022/01/03 05:53:14;;;;;;;;;;;;;;;14.19;44.87;99364.22;4468389;31;34012;-74
2022/01/03 05:55:42;;;;;;;;;;;;;;;14.40;44.51;99372.06;4474914;32;34827;-74
2022/01/03 05:58:09;;;;;;;;;;;;;;;14.49;44.33;99379.25;4473817;31;34408;-74
2022/01/03 06:00:37;;;;;;;;;;;;;;;14.60;44.14;99371.00;4473649;32;33748;-74
2022/01/03 06:03:04;;;;;;;;;;;;;;;14.74;43.67;99372.34;4477461;31;33887;-73
2022/01/03 06:08:06;;;;;;;;;;;;;;;14.68;44.30;99387.25;4471465;31;34372;-74
2022/01/03 06:10:34;;;;;;;;;;;;;;;14.29;45.71;99361.50;4466456;32;33232;-74
2022/01/03 06:13:01;;;;;;;;;;;;;;;14.19;45.40;99377.66;4468675;32;34193;-74
2022/01/03 06:15:29;;;;;;;;;;;;;;;14.36;44.97;99366.13;4472089;32;32823;-74
2022/01/03 06:17:56;;;;;;;;;;;;;;;14.28;45.67;99374.06;4468721;32;34216;-76
2022/01/03 06:20:24;;;;;;;;;;;;;;;14.60;44.57;99360.22;4470945;32;34565;-75
2022/01/03 06:22:51;;;;;;;;;;;;;;;14.75;44.13;99365.12;4470383;32;34037;-74
2022/01/03 06:25:19;;;;;;;;;;;;;;;14.78;43.91;99364.81;4472353;31;34579;-74
2022/01/03 06:27:46;;;;;;;;;;;;;;;14.30;44.87;99372.09;4475216;32;34028;-73
2022/01/03 06:30:14;;;;;;;;;;;;;;;13.99;45.51;99374.16;4470791;32;33558;-69
2022/01/03 06:32:42;;;;;;;;;;;;;;;14.35;44.78;99387.78;4473714;32;34880;-73
2022/01/03 06:35:10;;;;;;;;;;;;;;;14.51;44.58;99396.16;4467521;32;33413;-73
2022/01/03 06:37:37;;;;;;;;;;;;;;;14.50;44.58;99409.72;4467651;32;33762;-71
2022/01/03 06:40:06;;;;;;;;;;;;;;;14.10;45.63;99417.06;4472044;31;33298;-73
2022/01/03 06:42:35;;;;;;;;;;;;;;;14.41;44.50;99409.62;4469496;32;35275;-68
2022/01/03 06:45:03;;;;;;;;;;;;;;;14.19;44.98;99405.44;4467080;32;34190;-72
2022/01/03 06:47:31;;;;;;;;;;;;;;;14.41;44.68;99397.97;4473349;32;35382;-71
2022/01/03 06:49:58;;;;;;;;;;;;;;;14.57;44.51;99395.53;4466627;32;32196;-72
2022/01/03 06:52:26;;;;;;;;;;;;;;;14.61;44.15;99391.56;4474156;31;32705;-75
2022/01/03 06:54:53;;;;;;;;;;;;;;;14.69;44.25;99393.50;4473984;32;33866;-74
2022/01/03 06:57:21;;;;;;;;;;;;;;;14.68;44.60;99383.72;4468007;32;33207;-75
2022/01/03 06:59:48;;;;;;;;;;;;;;;14.13;45.56;99368.34;4465268;32;33101;-74
2022/01/03 07:02:16;;;;;;;;;;;;;;;14.29;45.42;99361.50;4466660;32;34061;-72
2022/01/03 07:04:43;;;;;;;;;;;;;;;14.59;44.83;99346.91;4472348;32;32876;-76
2022/01/03 07:07:11;;;;;;;;;;;;;;;14.53;44.74;99347.50;4470539;31;34253;-72
2022/01/03 07:09:39;;;;;;;;;;;;;;;14.78;44.37;99345.97;4475993;32;33625;-73
2022/01/03 07:12:06;;;;;;;;;;;;;;;14.47;45.02;99351.59;4470670;32;35248;-75
2022/01/03 07:19:53;;;;;;;;;;;;;;;13.10;48.65;99346.63;4468126;32;33731;-74
2022/01/03 07:22:20;;;;;;;;;;;;;;;13.43;47.69;99335.47;4474157;32;35134;-73
2022/01/03 07:24:48;;;;;;;;;;;;;;;13.34;47.42;99338.19;4470998;32;34184;-76
2022/01/03 07:27:15;;;;;;;;;;;;;;;13.34;47.72;99346.25;4471232;32;35826;-78
2022/01/03 07:29:43;;;;;;;;;;;;;;;12.96;48.45;99337.97;4469968;31;34321;-72
2022/01/03 07:32:10;;;;;;;;;;;;;;;13.67;46.81;99332.31;4472029;32;33956;-77
2022/01/03 07:34:38;;;;;;;;;;;;;;;13.55;46.77;99329.94;4470945;32;34502;-73
2022/01/03 07:37:05;;;;;;;;;;;;;;;13.74;45.95;99320.00;4472887;32;35119;-73
2022/01/03 07:39:34;;;;;;;;;;;;;;;13.53;46.07;99316.66;4466038;32;33946;-72
2022/01/03 07:42:02;;;;;;;;;;;;;;;13.51;45.57;99318.62;4464068;32;34200;-73
2022/01/03 07:44:33;;;;;;;;;;;;;;;13.86;45.22;99339.50;4464565;32;33905;-75
2022/01/03 07:47:01;;;;;;;;;;;;;;;13.75;44.82;99337.00;4469202;32;34252;-75
2022/01/03 07:49:28;;;;;;;;;;;;;;;14.12;44.39;99328.09;4465816;32;32230;-74
2022/01/03 07:51:56;;;;;;;;;;;;;;;14.19;43.35;99345.37;4473486;32;32848;-77
2022/01/03 07:54:24;;;;;;;;;;;;;;;14.11;43.95;99331.78;4468082;32;34186;-74
2022/01/03 07:56:51;;;;;;;;;;;;;;;14.43;42.69;99355.59;4467330;32;34565;-76
2022/01/03 07:59:18;;;;;;;;;;;;;;;14.15;43.23;99357.41;4473785;32;33633;-74
2022/01/03 08:01:47;;;;;;;;;;;;;;;14.68;41.98;99356.78;4471254;31;33944;-74
2022/01/03 08:04:14;;;;;;;;;;;;;;;14.88;41.49;99361.06;4472534;32;34950;-77
2022/01/03 08:06:45;;;;;;;;;;;;;;;14.42;42.83;99359.31;4466897;32;33490;-73
2022/01/03 08:09:12;;;;;;;;;;;;;;;14.71;42.05;99375.34;4465704;32;33435;-76
2022/01/03 08:11:40;;;;;;;;;;;;;;;14.28;42.83;99366.00;4463438;32;33764;-75
2022/01/03 08:14:07;;;;;;;;;;;;;;;14.73;42.28;99383.25;4463955;32;35378;-74
2022/01/03 08:16:35;;;;;;;;;;;;;;;14.52;42.72;99389.75;4468888;32;34567;-77
2022/01/03 08:19:02;;;;;;;;;;;;;;;14.89;42.55;99386.16;4473101;32;33547;-75
2022/01/03 08:21:30;;;;;;;;;;;;;;;15.10;41.32;99386.72;4471663;32;33077;-76
2022/01/03 08:23:57;;;;;;;;;;;;;;;14.96;41.82;99392.66;4470543;32;34320;-77
2022/01/03 08:26:24;;;;;;;;;;;;;;;14.99;42.18;99373.47;4477744;31;32927;-75
2022/01/03 08:28:52;;;;;;;;;;;;;;;14.87;41.57;99382.78;4471722;32;34509;-79
2022/01/03 08:31:21;;;;;;;;;;;;;;;14.87;41.70;99386.31;4468044;32;33971;-77
2022/01/03 08:33:49;;;;;;;;;;;;;;;15.23;41.03;99394.44;4458037;32;34283;-79
2022/01/03 08:36:17;;;;;;;;;;;;;;;15.14;41.79;99395.34;4462788;32;34456;-77
2022/01/03 08:38:44;;;;;;;;;;;;;;;15.07;41.85;99397.81;4470873;32;34574;-77
2022/01/03 08:41:12;;;;;;;;;;;;;;;15.19;41.46;99392.22;4475937;31;35109;-81
2022/01/03 08:43:39;;;;;;;;;;;;;;;15.40;41.61;99402.69;4471093;32;33245;-77
2022/01/03 08:46:06;;;;;;;;;;;;;;;15.65;40.68;99390.28;4470249;32;34260;-79
2022/01/03 08:48:34;;;;;;;;;;;;;;;15.43;41.24;99402.38;4469524;32;33478;-79
2022/01/03 08:51:01;;;;;;;;;;;;;;;15.35;41.59;99376.19;4470374;32;34162;-79
2022/01/03 08:53:32;;;;;;;;;;;;;;;14.93;42.86;99403.72;4469088;32;34453;-80
2022/01/03 08:56:00;;;;;;;;;;;;;;;14.97;42.53;99415.91;4473586;32;34598;-79
2022/01/03 08:58:27;;;;;;;;;;;;;;;14.58;43.35;99397.25;4472699;32;34360;-77
2022/01/03 09:00:54;;;;;;;;;;;;;;;15.01;43.28;99430.75;4470186;32;35049;-77
2022/01/03 09:03:22;;;;;;;;;;;;;;;14.85;43.23;99412.53;4473445;32;34294;-79
2022/01/03 09:05:49;;;;;;;;;;;;;;;15.29;42.72;99430.75;4474707;32;35382;-78
2022/01/03 09:08:17;;;;;;;;;;;;;;;15.71;41.87;99422.06;4469923;32;33826;-79
2022/01/03 09:10:45;;;;;;;;;;;;;;;15.70;41.84;99429.31;4473601;32;34013;-76
2022/01/03 09:13:12;;;;;;;;;;;;;;;15.53;42.99;99414.78;4478237;32;34325;-76
2022/01/03 09:15:44;;;;;;;;;;;;;;;15.54;42.66;99423.75;4478345;32;34515;-77
2022/01/03 09:18:16;;;;;;;;;;;;;;;15.24;42.30;99441.97;4469628;32;33505;-78
2022/01/03 09:20:43;;;;;;;;;;;;;;;15.25;42.09;99440.97;4472933;32;34739;-79
2022/01/03 09:23:26;;;;;;;;;;;;;;;15.43;42.31;99430.19;4472144;32;33179;-77
2022/01/03 09:28:49;;;;;;;;;;;;;;;15.13;42.04;99440.34;4467195;32;34577;-77
2022/01/03 09:31:17;;;;;;;;;;;;;;;15.09;42.80;99427.31;4478807;32;33730;-75
2022/01/03 09:33:44;;;;;;;;;;;;;;;15.22;42.19;99435.03;4474096;32;34271;-74
2022/01/03 09:36:12;;;;;;;;;;;;;;;15.43;41.79;99419.41;4477218;32;35133;-74
2022/01/03 09:38:39;;;;;;;;;;;;;;;15.56;41.24;99419.88;4477672;32;34085;-76
2022/01/03 09:41:07;;;;;;;;;;;;;;;15.24;41.65;99409.59;4468471;32;35053;-74
2022/01/03 09:43:41;;;;;;;;;;;;;;;15.48;41.44;99400.94;4468246;32;34043;-73
2022/01/03 09:46:09;;;;;;;;;;;;;;;15.85;41.31;99389.13;4470522;32;34112;-74
2022/01/03 09:48:37;;;;;;;;;;;;;;;15.82;40.52;99392.13;4473744;32;34484;-75
2022/01/03 09:51:05;;;;;;;;;;;;;;;15.92;40.20;99387.50;4473933;32;35215;-75
2022/01/03 09:53:32;;;;;;;;;;;;;;;16.28;39.78;99390.09;4477109;32;34323;-74
2022/01/03 09:55:59;;;;;;;;;;;;;;;15.95;40.02;99395.25;4475754;32;34095;-74
2022/01/03 09:58:27;;;;;;;;;;;;;;;15.97;39.97;99408.59;4472674;32;33349;-72
2022/01/03 10:00:54;;;;;;;;;;;;;;;16.41;39.20;99393.19;4468743;32;34170;-73
2022/01/03 10:03:22;;;;;;;;;;;;;;;16.59;39.41;99398.50;4476421;32;34320;-73
2022/01/03 10:05:50;;;;;;;;;;;;;;;16.63;38.54;99381.00;4473512;32;35259;-74
2022/01/03 10:08:17;;;;;;;;;;;;;;;17.23;37.76;99388.12;4471773;32;34517;-74
2022/01/03 10:10:45;;;;;;;;;;;;;;;17.45;37.26;99387.47;4476199;32;34130;-75
2022/01/03 10:13:14;;;;;;;;;;;;;;;17.43;37.50;99388.66;4475712;32;34450;-75
2022/01/03 10:15:42;;;;;;;;;;;;;;;17.57;37.08;99385.28;4477802;32;35116;-73
2022/01/03 10:18:19;;;;;;;;;;;;;;;18.06;35.85;99389.88;4475211;32;33109;-75
2022/01/03 10:20:47;;;;;;;;;;;;;;;17.38;37.94;99372.09;4475017;32;33147;-73
2022/01/03 10:23:15;;;;;;;;;;;;;;;17.23;36.89;99377.28;4476486;32;33887;-73
2022/01/03 10:25:43;;;;;;;;;;;;;;;17.69;36.54;99372.28;4474291;32;34456;-74
2022/01/03 10:28:10;;;;;;;;;;;;;;;17.63;37.31;99354.84;4475931;32;33496;-73
2022/01/03 10:30:39;;;;;;;;;;;;;;;18.23;35.27;99350.88;4474051;32;35631;-73
2022/01/03 10:33:07;;;;;;;;;;;;;;;17.91;36.38;99340.97;4475632;32;34252;-74
2022/01/03 10:35:41;;;;;;;;;;;;;;;18.01;36.02;99328.13;4473171;32;33328;-73
2022/01/03 10:38:09;;;;;;;;;;;;;;;18.30;35.29;99327.53;4475561;32;33499;-73
2022/01/03 10:40:37;;;;;;;;;;;;;;;17.74;36.43;99340.13;4471366;32;32735;-73
2022/01/03 10:43:14;;;;;;;;;;;;;;;17.59;36.80;99345.41;4473972;32;34422;-75
2022/01/03 10:45:42;;;;;;;;;;;;;;;17.80;36.71;99344.03;4479094;32;35205;-73
2022/01/03 10:48:28;;;;;;;;;;;;;;;16.94;38.40;99342.59;4473884;32;33486;-76
2022/01/03 10:50:56;;;;;;;;;;;;;;;17.24;37.50;99343.84;4475986;32;34203;-76
2022/01/03 10:53:36;;;;;;;;;;;;;;;17.37;37.78;99348.78;4473548;32;34300;-76
2022/01/03 10:56:24;;;;;;;;;;;;;;;17.32;37.57;99346.53;4472376;32;34458;-76
2022/01/03 10:59:34;;;;;;;;;;;;;;;17.03;38.35;99351.56;4467123;32;34942;-76
2022/01/03 11:02:02;;;;;;;;;;;;;;;17.34;37.60;99360.75;4471639;32;34259;-76
2022/01/03 11:04:36;;;;;;;;;;;;;;;16.98;37.82;99350.22;4467276;32;34354;-76
2022/01/03 11:13:05;;;;;;;;;;;;;;;17.19;38.60;99324.56;4470772;32;34174;-76
2022/01/03 11:15:33;;;;;;;;;;;;;;;17.29;38.17;99332.53;4475751;32;34052;-79
2022/01/03 11:18:08;;;;;;;;;;;;;;;17.33;38.14;99325.75;4476499;32;33238;-78
2022/01/03 11:20:36;;;;;;;;;;;;;;;17.66;37.31;99327.44;4473413;32;34556;-78
2022/01/03 11:23:03;;;;;;;;;;;;;;;16.99;38.78;99334.84;4472269;32;34194;-78
2022/01/03 11:25:32;;;;;;;;;;;;;;;16.76;39.25;99331.91;4467309;32;35441;-78
2022/01/03 11:27:59;;;;;;;;;;;;;;;17.12;38.49;99337.91;4467909;32;34995;-78
2022/01/03 11:30:27;;;;;;;;;;;;;;;17.04;38.66;99345.16;4474333;32;33405;-78
2022/01/03 11:32:56;;;;;;;;;;;;;;;17.09;38.70;99345.50;4467486;32;33963;-78
2022/01/03 11:35:23;;;;;;;;;;;;;;;17.02;37.76;99331.81;4477701;32;35327;-79
2022/01/03 11:37:50;;;;;;;;;;;;;;;15.77;40.73;99327.00;4472753;32;34293;-78
2022/01/03 11:40:18;;;;;;;;;;;;;;;16.21;39.91;99335.00;4460374;32;33284;-78
2022/01/03 11:42:46;;;;;;;;;;;;;;;15.61;40.93;99312.34;4472451;32;34036;-77
2022/01/03 11:45:14;;;;;;;;;;;;;;;15.39;41.27;99320.94;4470808;32;34434;-77
2022/01/03 11:47:42;;;;;;;;;;;;;;;15.08;41.64;99325.88;4471960;32;34272;-78
2022/01/03 11:50:09;;;;;;;;;;;;;;;15.07;41.31;99330.44;4474917;32;34507;-76
2022/01/03 11:52:40;;;;;;;;;;;;;;;15.69;40.43;99332.34;4469842;32;35017;-79
2022/01/03 11:55:09;;;;;;;;;;;;;;;15.40;41.27;99341.50;4472267;32;35414;-76
2022/01/03 11:57:57;;;;;;;;;;;;;;;14.70;42.96;99340.47;4478245;32;32835;-73
2022/01/03 12:05:58;;;;;;;;;;;;;;;14.67;42.64;99371.25;4466152;32;34253;-72
2022/01/03 12:08:29;;;;;;;;;;;;;;;14.96;42.04;99365.69;4469912;32;32964;-71
2022/01/03 12:11:00;;;;;;;;;;;;;;;15.05;42.65;99353.97;4466464;32;32591;-70
2022/01/03 12:13:47;;;;;;;;;;;;;;;15.14;41.74;99349.53;4468090;32;33736;-71
2022/01/03 12:16:14;;;;;;;;;;;;;;;15.78;40.50;99332.22;4467974;32;34261;-70
2022/01/03 12:18:58;;;;;;;;;;;;;;;15.15;41.94;99332.34;4467536;32;34492;-71
2022/01/03 12:21:44;;;;;;;;;;;;;;;15.28;41.50;99323.88;4473816;32;32146;-75
2022/01/03 12:24:32;;;;;;;;;;;;;;;14.74;43.04;99323.88;4469742;32;32929;-76
2022/01/03 12:27:12;;;;;;;;;;;;;;;14.41;43.98;99331.53;4439952;32;33264;-75
2022/01/03 12:29:58;;;;;;;;;;;;;;;14.28;43.84;99330.16;4470880;32;33912;-78
2022/01/03 12:32:32;;;;;;;;;;;;;;;14.77;43.23;99328.09;4468912;32;33556;-76
2022/01/03 12:35:03;;;;;;;;;;;;;;;14.10;44.56;99328.25;4467965;32;35331;-76
2022/01/03 12:37:30;;;;;;;;;;;;;;;14.10;45.44;99341.72;4469246;32;34751;-73
2022/01/03 12:40:03;;;;;;;;;;;;;;;14.19;45.17;99348.06;4469552;32;34536;-74
2022/01/03 12:42:50;;;;;;;;;;;;;;;14.34;44.75;99349.25;4472470;32;35033;-75
2022/01/03 12:45:31;;;;;;;;;;;;;;;14.63;44.25;99351.84;4470736;32;35342;-74
2022/01/03 12:48:08;;;;;;;;;;;;;;;14.18;44.91;99349.88;4467922;32;34342;-76
2022/01/03 12:50:39;;;;;;;;;;;;;;;14.41;44.48;99346.81;4474244;32;34512;-73
2022/01/03 12:53:08;;;;;;;;;;;;;;;14.83;43.48;99354.41;4472809;32;33593;-75
2022/01/03 12:55:38;;;;;;;;;;;;;;;14.78;43.71;99352.19;4470951;32;32877;-79
2022/01/03 12:58:14;;;;;;;;;;;;;;;14.62;44.72;99357.38;4471435;32;34103;-79
2022/01/03 13:00:45;;;;;;;;;;;;;;;15.19;43.02;99357.19;4473352;32;34252;-74
2022/01/03 13:03:26;;;;;;;;;;;;;;;14.72;44.02;99363.56;4469363;32;33757;-77
2022/01/03 13:06:14;;;;;;;;;;;;;;;14.73;44.12;99356.31;4470854;32;33954;-74
2022/01/03 13:08:48;;;;;;;;;;;;;;;15.34;43.14;99342.12;4473925;32;34284;-78
2022/01/03 13:11:16;;;;;;;;;;;;;;;15.41;42.73;99356.72;4473859;32;35403;-76
2022/01/03 13:13:45;;;;;;;;;;;;;;;15.64;42.02;99354.38;4475538;32;33617;-77
2022/01/03 13:16:15;;;;;;;;;;;;;;;15.38;42.73;99343.53;4472466;32;35487;-77
2022/01/03 13:18:44;;;;;;;;;;;;;;;15.38;42.54;99355.16;4477290;32;35336;-75
2022/01/03 13:21:12;;;;;;;;;;;;;;;15.54;42.34;99353.63;4471289;32;34323;-75
2022/01/03 13:24:00;;;;;;;;;;;;;;;15.73;41.84;99357.97;4474729;32;33575;-76